Time;durP1;ratioP1;P1;durP2;ratioP2;P2;SDS_P1;SDS_P2;PMS_P1;PMS_P2;Temp;Humidity;BMP_temperature;BMP_pressure;BME280_temperature;BME280_humidity;BME280_pressure;Samples;Min_cycle;Max_cycle;Signal;HPM_P1;HPM_P2
2021/05/16 00:00:03;;;;;;;1.07;0.97;;;;;;;;;;5091092;28;20539;-73
2021/05/16 00:13:39;;;;;;;1.43;1.20;;;;;;;;;;5092692;28;20567;-74
2021/05/16 00:16:12;;;;;;;1.50;0.80;;;;;;;;;;5093355;28;20493;-74
2021/05/16 00:18:51;;;;;;;0.80;0.80;;;;;;;;;;5092345;28;20561;-73
2021/05/16 00:24:58;;;;;;;1.43;0.80;;;;;;;;;;5093115;28;20420;-72
2021/05/16 00:27:48;;;;;;;2.43;0.50;;;;;;;;;;5092113;28;20934;-73
2021/05/16 00:31:03;;;;;;;1.80;0.70;;;;;;;;;;5093268;28;20472;-72
2021/05/16 00:33:42;;;;;;;2.20;0.87;;;;;;;;;;5093501;28;20441;-73
2021/05/16 00:36:15;;;;;;;0.97;0.83;;;;;;;;;;5113025;28;20529;-73
2021/05/16 00:46:08;;;;;;;1.40;0.70;;;;;;;;;;5113710;28;20486;-73
2021/05/16 00:49:02;;;;;;;1.47;1.07;;;;;;;;;;5100269;28;20452;-73
2021/05/16 00:54:17;;;;;;;2.07;0.90;;;;;;;;;;5254744;22;20531;-73
2021/05/16 00:56:50;;;;;;;1.57;1.03;;;;;;;;;;5109704;28;20451;-74
2021/05/16 00:59:22;;;;;;;4.20;1.10;;;;;;;;;;5094839;28;20530;-73
2021/05/16 01:01:57;;;;;;;1.33;0.70;;;;;;;;;;5106554;28;20557;-73
2021/05/16 01:04:32;;;;;;;3.23;1.07;;;;;;;;;;5116654;28;20440;-73
2021/05/16 01:07:04;;;;;;;3.43;1.07;;;;;;;;;;5115759;28;20443;-73
2021/05/16 01:09:36;;;;;;;2.17;1.10;;;;;;;;;;5111994;28;20502;-73
2021/05/16 01:12:09;;;;;;;1.27;0.90;;;;;;;;;;5102605;28;20542;-73
2021/05/16 01:14:44;;;;;;;2.03;1.17;;;;;;;;;;5092116;28;20439;-73
2021/05/16 01:17:42;;;;;;;2.70;1.00;;;;;;;;;;5078278;28;20461;-73
2021/05/16 01:20:16;;;;;;;1.23;0.70;;;;;;;;;;5091811;28;20879;-75
2021/05/16 01:22:55;;;;;;;3.27;1.47;;;;;;;;;;5098436;28;20464;-81
2021/05/16 01:25:28;;;;;;;2.00;1.20;;;;;;;;;;5100544;28;20444;-72
2021/05/16 01:28:00;;;;;;;2.50;1.20;;;;;;;;;;5096804;28;20541;-73
2021/05/16 01:30:33;;;;;;;2.50;1.20;;;;;;;;;;5106698;28;20463;-74
2021/05/16 01:33:05;;;;;;;2.43;1.10;;;;;;;;;;5102694;27;21143;-74
2021/05/16 01:35:38;;;;;;;2.50;0.93;;;;;;;;;;5112180;27;20604;-72
2021/05/16 01:38:11;;;;;;;2.27;1.00;;;;;;;;;;5103607;28;20493;-76
2021/05/16 01:40:44;;;;;;;2.03;1.10;;;;;;;;;;5100383;28;20482;-72
2021/05/16 01:43:17;;;;;;;2.13;1.83;;;;;;;;;;5101051;27;20522;-72
2021/05/16 01:45:49;;;;;;;1.60;1.03;;;;;;;;;;5102871;27;20737;-72
2021/05/16 01:48:22;;;;;;;3.70;1.10;;;;;;;;;;5096291;27;20457;-72
2021/05/16 01:50:54;;;;;;;3.17;1.23;;;;;;;;;;5102296;27;20480;-71
2021/05/16 01:53:27;;;;;;;1.70;1.03;;;;;;;;;;5088654;28;20551;-74
2021/05/16 01:56:00;;;;;;;4.00;1.60;;;;;;;;;;5075360;28;20524;-72
2021/05/16 01:58:32;;;;;;;3.90;1.20;;;;;;;;;;5080747;28;20440;-73
2021/05/16 02:01:24;;;;;;;3.07;1.23;;;;;;;;;;5100978;28;20427;-73
2021/05/16 02:04:10;;;;;;;3.53;1.20;;;;;;;;;;5101318;28;20480;-74
2021/05/16 02:06:43;;;;;;;4.00;1.27;;;;;;;;;;5095389;28;20433;-74
2021/05/16 02:09:19;;;;;;;3.60;1.13;;;;;;;;;;5082829;28;20502;-74
2021/05/16 02:11:52;;;;;;;3.33;1.30;;;;;;;;;;5094998;28;20444;-73
2021/05/16 02:14:31;;;;;;;4.70;1.57;;;;;;;;;;5085576;28;20533;-73
2021/05/16 02:17:04;;;;;;;3.63;1.50;;;;;;;;;;5095488;28;20447;-78
2021/05/16 02:19:36;;;;;;;4.20;1.43;;;;;;;;;;5077927;28;20450;-74
2021/05/16 02:22:28;;;;;;;3.17;1.37;;;;;;;;;;5095362;28;20408;-75
2021/05/16 02:25:01;;;;;;;3.47;1.40;;;;;;;;;;5096432;28;20439;-73
2021/05/16 02:27:30;;;;;;;2.73;1.53;;;;;;;;;;5095556;28;20853;-73
2021/05/16 02:30:23;;;;;;;1.37;1.00;;;;;;;;;;5089122;28;20555;-74
2021/05/16 02:32:59;;;;;;;3.23;1.00;;;;;;;;;;5076337;28;20505;-73
2021/05/16 02:35:37;;;;;;;2.70;1.17;;;;;;;;;;5108370;28;20467;-73
2021/05/16 02:38:10;;;;;;;1.20;1.00;;;;;;;;;;5082755;28;20463;-73
2021/05/16 02:40:43;;;;;;;7.00;1.50;;;;;;;;;;5089694;28;20529;-73
2021/05/16 02:43:15;;;;;;;3.03;1.53;;;;;;;;;;5082361;28;20451;-80
2021/05/16 02:45:47;;;;;;;5.40;1.23;;;;;;;;;;5086798;28;20447;-73
2021/05/16 02:48:17;;;;;;;3.27;1.47;;;;;;;;;;5083141;28;20504;-81
2021/05/16 02:50:49;;;;;;;8.23;1.30;;;;;;;;;;5084573;28;20561;-76
2021/05/16 02:53:22;;;;;;;5.30;1.30;;;;;;;;;;5085006;28;20468;-73
2021/05/16 02:55:53;;;;;;;3.87;1.80;;;;;;;;;;5080375;28;20458;-76
2021/05/16 02:58:25;;;;;;;5.03;1.60;;;;;;;;;;5084986;28;20453;-78
2021/05/16 03:00:58;;;;;;;1.73;1.27;;;;;;;;;;5090439;28;20539;-78
2021/05/16 03:03:30;;;;;;;3.03;1.40;;;;;;;;;;5081651;28;20558;-73
2021/05/16 03:06:02;;;;;;;3.20;2.10;;;;;;;;;;5087210;28;21026;-76
2021/05/16 03:08:34;;;;;;;2.43;1.17;;;;;;;;;;5080001;28;20479;-73
2021/05/16 03:11:07;;;;;;;3.23;1.73;;;;;;;;;;5086143;28;20518;-74
2021/05/16 03:13:39;;;;;;;3.23;1.60;;;;;;;;;;5080936;28;20931;-73
2021/05/16 03:16:11;;;;;;;2.47;1.47;;;;;;;;;;5087256;28;20449;-72
2021/05/16 03:18:44;;;;;;;3.80;1.87;;;;;;;;;;5085932;28;21165;-73
2021/05/16 03:21:16;;;;;;;5.63;1.63;;;;;;;;;;5084557;28;20480;-73
2021/05/16 03:23:48;;;;;;;3.00;1.60;;;;;;;;;;5086952;28;20554;-72
2021/05/16 03:26:21;;;;;;;2.50;1.60;;;;;;;;;;5092398;28;20448;-75
2021/05/16 03:28:54;;;;;;;4.53;2.20;;;;;;;;;;5088580;28;20504;-73
2021/05/16 03:31:26;;;;;;;2.80;1.67;;;;;;;;;;5089826;28;20477;-73
2021/05/16 03:33:58;;;;;;;8.87;2.27;;;;;;;;;;5081294;28;20879;-77
2021/05/16 03:36:30;;;;;;;2.57;1.53;;;;;;;;;;5085426;28;20498;-79
2021/05/16 03:39:02;;;;;;;2.90;1.30;;;;;;;;;;5085356;28;20454;-80
2021/05/16 03:41:36;;;;;;;5.20;2.07;;;;;;;;;;5086101;28;20461;-78
2021/05/16 03:44:08;;;;;;;4.20;1.50;;;;;;;;;;5079734;28;20532;-78
2021/05/16 03:46:41;;;;;;;2.80;1.57;;;;;;;;;;5090040;28;20565;-78
2021/05/16 03:49:15;;;;;;;2.53;1.40;;;;;;;;;;5085443;28;20467;-80
2021/05/16 03:51:48;;;;;;;1.63;1.40;;;;;;;;;;5084773;28;20476;-82
2021/05/16 03:54:20;;;;;;;2.33;1.70;;;;;;;;;;5078073;28;20519;-79
2021/05/16 03:56:51;;;;;;;4.50;1.83;;;;;;;;;;5083174;28;21219;-78
2021/05/16 03:59:23;;;;;;;3.00;1.70;;;;;;;;;;5083504;28;20530;-82
2021/05/16 04:01:55;;;;;;;5.20;1.90;;;;;;;;;;5086983;28;20945;-78
2021/05/16 04:04:28;;;;;;;3.30;1.63;;;;;;;;;;5084320;28;20781;-78
2021/05/16 04:06:58;;;;;;;3.73;1.80;;;;;;;;;;5090750;28;20481;-78
2021/05/16 04:09:30;;;;;;;4.23;1.70;;;;;;;;;;5086296;28;20493;-85
2021/05/16 04:12:04;;;;;;;3.33;1.33;;;;;;;;;;5083191;28;20460;-78
2021/05/16 04:14:36;;;;;;;2.43;1.97;;;;;;;;;;5090030;28;20532;-83
2021/05/16 04:17:08;;;;;;;3.13;1.47;;;;;;;;;;5088208;28;20459;-78
2021/05/16 04:19:41;;;;;;;4.27;1.70;;;;;;;;;;5086208;28;21099;-80
2021/05/16 04:22:13;;;;;;;4.10;1.30;;;;;;;;;;5089753;28;20457;-83
2021/05/16 04:24:45;;;;;;;2.80;1.97;;;;;;;;;;5101180;28;20478;-79
2021/05/16 04:27:16;;;;;;;4.13;1.37;;;;;;;;;;5086168;28;20479;-77
2021/05/16 04:29:48;;;;;;;4.47;1.77;;;;;;;;;;5086018;28;20503;-82
2021/05/16 04:32:20;;;;;;;8.00;2.00;;;;;;;;;;5091701;28;20464;-84
2021/05/16 04:34:50;;;;;;;8.67;2.40;;;;;;;;;;5098353;28;20497;-82
2021/05/16 04:37:22;;;;;;;4.47;1.73;;;;;;;;;;5093209;28;20457;-82
2021/05/16 04:39:54;;;;;;;2.10;1.43;;;;;;;;;;5091654;28;20480;-80
2021/05/16 04:42:27;;;;;;;9.90;1.90;;;;;;;;;;5071823;28;20471;-78
2021/05/16 04:44:59;;;;;;;2.30;1.30;;;;;;;;;;5092002;28;20450;-77
2021/05/16 04:47:32;;;;;;;1.30;1.20;;;;;;;;;;5082212;28;20480;-79
2021/05/16 04:50:04;;;;;;;3.63;1.97;;;;;;;;;;5091046;28;20474;-78
2021/05/16 04:52:36;;;;;;;4.87;1.50;;;;;;;;;;5080157;28;21045;-78
2021/05/16 04:55:09;;;;;;;1.40;1.27;;;;;;;;;;5081272;28;20508;-76
2021/05/16 04:57:42;;;;;;;4.20;1.70;;;;;;;;;;5080400;28;20486;-78
2021/05/16 05:00:16;;;;;;;1.67;0.93;;;;;;;;;;5084460;28;20540;-76
2021/05/16 05:02:48;;;;;;;4.97;1.50;;;;;;;;;;5079352;28;20451;-76
2021/05/16 05:05:20;;;;;;;2.93;1.77;;;;;;;;;;5089842;28;20481;-77
2021/05/16 05:07:53;;;;;;;4.33;1.23;;;;;;;;;;5081371;28;20458;-81
2021/05/16 05:10:25;;;;;;;1.93;1.17;;;;;;;;;;5084951;28;21003;-77
2021/05/16 05:12:56;;;;;;;2.00;1.30;;;;;;;;;;5085377;28;20524;-83
2021/05/16 05:15:28;;;;;;;3.90;1.50;;;;;;;;;;5096750;28;20452;-82
2021/05/16 05:18:08;;;;;;;2.70;1.30;;;;;;;;;;5093289;28;20825;-84
2021/05/16 05:20:41;;;;;;;2.10;1.57;;;;;;;;;;5099177;28;20450;-85
2021/05/16 05:23:13;;;;;;;5.20;2.17;;;;;;;;;;5091063;28;20512;-81
2021/05/16 05:25:46;;;;;;;3.70;1.20;;;;;;;;;;5098475;28;20475;-84
2021/05/16 05:28:20;;;;;;;1.80;1.37;;;;;;;;;;5100050;28;20644;-83
2021/05/16 05:30:53;;;;;;;3.23;1.80;;;;;;;;;;5095311;28;20575;-84
2021/05/16 05:33:25;;;;;;;3.00;1.50;;;;;;;;;;5096776;28;20481;-82
2021/05/16 05:35:57;;;;;;;1.43;1.30;;;;;;;;;;5101448;28;20486;-82
2021/05/16 05:38:30;;;;;;;5.07;1.63;;;;;;;;;;5097689;28;20458;-81
2021/05/16 05:41:02;;;;;;;1.60;1.50;;;;;;;;;;5099085;28;20543;-80
2021/05/16 05:43:35;;;;;;;2.30;1.37;;;;;;;;;;5101776;28;20473;-82
2021/05/16 05:46:07;;;;;;;2.07;0.90;;;;;;;;;;5102333;28;20557;-80
2021/05/16 05:48:40;;;;;;;1.63;1.53;;;;;;;;;;5097626;28;20458;-80
2021/05/16 05:51:12;;;;;;;3.50;1.33;;;;;;;;;;5096900;28;20488;-81
2021/05/16 05:53:45;;;;;;;1.20;1.10;;;;;;;;;;5089663;28;20483;-80
2021/05/16 05:56:17;;;;;;;3.60;1.70;;;;;;;;;;5098332;28;20509;-80
2021/05/16 05:59:01;;;;;;;1.63;1.30;;;;;;;;;;5098103;28;20451;-82
2021/05/16 06:01:35;;;;;;;1.90;1.47;;;;;;;;;;5099658;28;20966;-80
2021/05/16 06:04:07;;;;;;;2.10;1.37;;;;;;;;;;5106880;28;20444;-81
2021/05/16 06:06:39;;;;;;;2.93;1.57;;;;;;;;;;5114693;28;20448;-80
2021/05/16 06:09:11;;;;;;;2.57;1.30;;;;;;;;;;5112958;28;20978;-81
2021/05/16 06:11:44;;;;;;;2.00;1.07;;;;;;;;;;5117960;28;20450;-81
2021/05/16 06:14:16;;;;;;;1.47;1.37;;;;;;;;;;5099127;28;20507;-83
2021/05/16 06:16:49;;;;;;;2.10;1.27;;;;;;;;;;5097147;28;20442;-79
2021/05/16 06:19:21;;;;;;;3.93;1.47;;;;;;;;;;5099552;28;20479;-81
2021/05/16 06:21:53;;;;;;;1.93;1.47;;;;;;;;;;5099803;28;20512;-81
2021/05/16 06:24:25;;;;;;;2.47;1.60;;;;;;;;;;5099931;28;20446;-83
2021/05/16 06:26:58;;;;;;;1.73;1.30;;;;;;;;;;5097581;28;20471;-81
2021/05/16 06:29:30;;;;;;;1.83;1.40;;;;;;;;;;5100033;28;20463;-81
2021/05/16 06:32:03;;;;;;;3.30;1.80;;;;;;;;;;5107498;28;20487;-80
2021/05/16 06:34:35;;;;;;;2.30;1.27;;;;;;;;;;5103316;28;20443;-81
2021/05/16 06:37:08;;;;;;;1.40;1.30;;;;;;;;;;5108016;28;20486;-81
2021/05/16 06:39:40;;;;;;;2.23;1.70;;;;;;;;;;5102454;28;20442;-80
2021/05/16 06:42:12;;;;;;;2.70;1.20;;;;;;;;;;5099182;28;20451;-81
2021/05/16 06:44:45;;;;;;;2.10;1.43;;;;;;;;;;5096977;28;20471;-83
2021/05/16 06:47:20;;;;;;;4.90;1.50;;;;;;;;;;5097485;28;20448;-82
2021/05/16 06:49:53;;;;;;;2.30;1.30;;;;;;;;;;5098637;28;20509;-83
2021/05/16 06:52:26;;;;;;;3.67;1.47;;;;;;;;;;5100180;28;20466;-82
2021/05/16 06:54:58;;;;;;;2.33;1.47;;;;;;;;;;5092990;28;20501;-81
2021/05/16 06:57:31;;;;;;;1.40;1.30;;;;;;;;;;5094903;28;20457;-83
2021/05/16 07:00:03;;;;;;;4.27;2.03;;;;;;;;;;5095627;28;20500;-82
2021/05/16 07:02:37;;;;;;;2.90;1.60;;;;;;;;;;5089445;28;20490;-83
2021/05/16 07:05:09;;;;;;;3.13;1.47;;;;;;;;;;5097097;28;20508;-82
2021/05/16 07:07:42;;;;;;;2.20;1.90;;;;;;;;;;5096010;28;21013;-80
2021/05/16 07:10:15;;;;;;;5.00;1.23;;;;;;;;;;5101054;28;20471;-81
2021/05/16 07:12:47;;;;;;;3.20;1.60;;;;;;;;;;5088944;28;21033;-80
2021/05/16 07:15:20;;;;;;;2.93;1.40;;;;;;;;;;5097653;28;20447;-82
2021/05/16 07:17:53;;;;;;;2.67;1.40;;;;;;;;;;5095659;28;20445;-82
2021/05/16 07:20:26;;;;;;;2.33;1.33;;;;;;;;;;5080927;28;20515;-81
2021/05/16 07:22:58;;;;;;;2.30;1.47;;;;;;;;;;5095060;28;20460;-82
2021/05/16 07:25:30;;;;;;;3.07;1.40;;;;;;;;;;5101669;28;20489;-85
2021/05/16 07:28:02;;;;;;;1.90;1.50;;;;;;;;;;5090286;28;20461;-85
2021/05/16 07:30:35;;;;;;;2.60;1.50;;;;;;;;;;5095068;28;20999;-84
2021/05/16 07:33:08;;;;;;;6.53;1.90;;;;;;;;;;5098349;28;20505;-85
2021/05/16 07:35:41;;;;;;;1.87;1.20;;;;;;;;;;5098566;28;20437;-84
2021/05/16 07:38:14;;;;;;;5.63;1.63;;;;;;;;;;5089812;28;20482;-85
2021/05/16 07:40:46;;;;;;;2.13;1.60;;;;;;;;;;5099478;28;20515;-86
2021/05/16 07:43:18;;;;;;;5.40;1.53;;;;;;;;;;5105981;28;20449;-84
2021/05/16 07:45:51;;;;;;;2.50;1.73;;;;;;;;;;5093378;28;20451;-84
2021/05/16 07:48:28;;;;;;;4.93;1.60;;;;;;;;;;5092017;28;20491;-84
2021/05/16 07:51:01;;;;;;;2.63;1.30;;;;;;;;;;5101948;28;20549;-82
2021/05/16 07:53:35;;;;;;;3.30;1.43;;;;;;;;;;5097355;28;20481;-83
2021/05/16 07:56:10;;;;;;;1.93;1.47;;;;;;;;;;5108448;28;20447;-87
2021/05/16 07:58:42;;;;;;;3.20;1.63;;;;;;;;;;5103048;28;20489;-85
2021/05/16 08:01:14;;;;;;;3.53;1.80;;;;;;;;;;5109303;28;20439;-85
2021/05/16 08:03:47;;;;;;;2.57;1.33;;;;;;;;;;5095885;28;20476;-85
2021/05/16 08:06:20;;;;;;;2.03;1.40;;;;;;;;;;5102230;28;20437;-86
2021/05/16 08:08:52;;;;;;;1.80;1.10;;;;;;;;;;5091479;28;20456;-85
2021/05/16 08:11:24;;;;;;;2.20;1.30;;;;;;;;;;5093285;28;20491;-86
2021/05/16 08:13:56;;;;;;;2.30;1.20;;;;;;;;;;5092348;28;20441;-86
2021/05/16 08:16:30;;;;;;;5.73;1.53;;;;;;;;;;5091199;28;20546;-85
2021/05/16 08:19:04;;;;;;;2.77;1.30;;;;;;;;;;5085160;28;20453;-84
2021/05/16 08:21:37;;;;;;;3.10;1.97;;;;;;;;;;5093987;28;20480;-85
2021/05/16 08:24:10;;;;;;;2.03;1.10;;;;;;;;;;5089769;28;20444;-86
2021/05/16 08:26:42;;;;;;;4.00;1.13;;;;;;;;;;5062730;28;20480;-86
2021/05/16 08:29:15;;;;;;;1.37;0.90;;;;;;;;;;5091309;28;20982;-86
2021/05/16 08:31:49;;;;;;;5.20;1.40;;;;;;;;;;5071026;28;20463;-85
2021/05/16 08:34:22;;;;;;;3.57;1.17;;;;;;;;;;5094781;28;20462;-86
2021/05/16 08:36:54;;;;;;;2.50;1.00;;;;;;;;;;5083128;28;20461;-86
2021/05/16 08:39:27;;;;;;;1.23;0.70;;;;;;;;;;5085769;28;20520;-85
2021/05/16 08:41:59;;;;;;;2.27;1.20;;;;;;;;;;5092975;28;20458;-86
2021/05/16 08:44:34;;;;;;;1.10;0.90;;;;;;;;;;5093546;28;20560;-86
2021/05/16 08:47:08;;;;;;;1.73;1.03;;;;;;;;;;5093374;28;21328;-82
2021/05/16 08:49:41;;;;;;;3.20;1.30;;;;;;;;;;5102261;28;20479;-82
2021/05/16 08:52:14;;;;;;;2.20;0.80;;;;;;;;;;5099124;28;20464;-82
2021/05/16 08:54:52;;;;;;;2.70;1.20;;;;;;;;;;5094424;28;20469;-83
2021/05/16 08:57:24;;;;;;;4.53;1.20;;;;;;;;;;5091787;28;20450;-82
2021/05/16 09:00:14;;;;;;;2.33;0.90;;;;;;;;;;5094079;28;20446;-81
2021/05/16 09:03:08;;;;;;;1.80;1.07;;;;;;;;;;5093917;28;20450;-83
2021/05/16 09:05:42;;;;;;;2.27;1.20;;;;;;;;;;5096517;28;20455;-81
2021/05/16 09:08:16;;;;;;;2.00;0.90;;;;;;;;;;5097982;28;20535;-83
2021/05/16 09:10:50;;;;;;;2.93;0.93;;;;;;;;;;5093361;28;20470;-83
2021/05/16 09:13:29;;;;;;;2.63;0.80;;;;;;;;;;5097082;28;20510;-82
2021/05/16 09:16:06;;;;;;;3.73;1.10;;;;;;;;;;5091133;28;20482;-83
2021/05/16 09:18:44;;;;;;;1.57;1.10;;;;;;;;;;5086843;28;20460;-84
2021/05/16 09:21:28;;;;;;;2.73;1.27;;;;;;;;;;5094918;28;20442;-84
2021/05/16 09:24:14;;;;;;;0.70;0.50;;;;;;;;;;5092254;28;20449;-83
2021/05/16 09:26:53;;;;;;;1.53;0.73;;;;;;;;;;5089403;28;20468;-83
2021/05/16 09:29:33;;;;;;;1.50;0.77;;;;;;;;;;5094926;28;20534;-84
2021/05/16 09:32:07;;;;;;;3.50;0.83;;;;;;;;;;5096822;28;20441;-86
2021/05/16 09:34:40;;;;;;;2.00;0.93;;;;;;;;;;5102820;28;20454;-87
2021/05/16 09:37:14;;;;;;;2.07;1.10;;;;;;;;;;5104917;28;20441;-86
2021/05/16 09:39:51;;;;;;;2.90;0.70;;;15.20;60.00;;;;;;5101797;28;20454;-86
2021/05/16 09:42:26;;;;;;;4.47;1.03;;;14.80;59.90;;;;;;5107128;28;20457;-85
2021/05/16 09:45:01;;;;;;;2.40;0.90;;;14.20;62.80;;;;;;5101101;28;20526;-85
2021/05/16 09:47:36;;;;;;;2.83;0.67;;;13.90;67.10;;;;;;5101010;28;20447;-84
2021/05/16 09:50:12;;;;;;;4.67;1.10;;;13.80;69.10;;;;;;5099023;28;20524;-84
2021/05/16 09:53:05;;;;;;;1.90;0.90;;;14.30;69.70;;;;;;5093943;28;20506;-83
2021/05/16 09:55:41;;;;;;;1.83;0.90;;;14.80;68.30;;;;;;5088120;28;20448;-84
2021/05/16 09:58:16;;;;;;;2.87;0.90;;;15.40;67.70;;;;;;5092622;28;21014;-82
2021/05/16 10:00:51;;;;;;;3.50;1.33;;;15.90;68.50;;;;;;5087450;28;20455;-83
2021/05/16 10:03:24;;;;;;;3.10;1.10;;;16.50;67.40;;;;;;5089694;28;20452;-84
2021/05/16 10:05:57;;;;;;;4.10;1.50;;;16.70;66.00;;;;;;5102694;28;20480;-84
2021/05/16 10:08:33;;;;;;;4.60;1.10;;;16.80;66.50;;;;;;5095137;28;20437;-84
2021/05/16 10:11:08;;;;;;;3.37;1.30;;;16.40;66.90;;;;;;5097610;28;20998;-85
2021/05/16 10:13:52;;;;;;;1.50;1.03;;;16.30;67.40;;;;;;5095377;28;21037;-82
2021/05/16 10:16:30;;;;;;;1.47;0.97;;;15.90;67.10;;;;;;5083705;28;20454;-82
2021/05/16 10:19:07;;;;;;;2.30;1.10;;;15.70;66.40;;;;;;5090896;28;20459;-83
2021/05/16 10:21:43;;;;;;;1.60;0.90;;;15.50;64.90;;;;;;5084923;28;20444;-83
2021/05/16 10:24:20;;;;;;;3.40;1.00;;;15.90;64.40;;;;;;5094238;28;21049;-84
2021/05/16 10:27:24;;;;;;;1.53;1.10;;;16.50;66.60;;;;;;5105401;28;20431;-81
2021/05/16 10:30:08;;;;;;;1.30;0.83;;;16.10;64.20;;;;;;5098746;28;20476;-84
2021/05/16 10:32:55;;;;;;;2.40;1.20;;;16.10;66.00;;;;;;5101659;28;20455;-85
2021/05/16 10:35:49;;;;;;;1.83;1.10;;;16.30;64.60;;;;;;5104202;28;20454;-88
2021/05/16 10:38:46;;;;;;;2.03;1.00;;;16.40;63.40;;;;;;5100077;28;20955;-85
2021/05/16 10:41:25;;;;;;;4.10;1.67;;;15.90;61.80;;;;;;5091607;28;20871;-85
2021/05/16 10:44:42;;;;;;;2.20;1.00;;;16.30;61.40;;;;;;5093406;28;20439;-80
2021/05/16 10:47:29;;;;;;;1.80;1.17;;;16.60;59.90;;;;;;5095551;28;20947;-83
2021/05/16 10:50:04;;;;;;;3.43;1.40;;;17.10;60.40;;;;;;5088409;28;20531;-82
2021/05/16 10:52:39;;;;;;;6.10;1.60;;;17.50;58.30;;;;;;5091378;28;20489;-85
2021/05/16 10:55:30;;;;;;;1.60;1.00;;;18.00;57.70;;;;;;5091839;28;20572;-82
2021/05/16 10:58:06;;;;;;;2.17;1.30;;;18.30;56.20;;;;;;5096858;28;20515;-82
2021/05/16 11:00:47;;;;;;;5.87;1.57;;;18.80;56.10;;;;;;5086437;28;20900;-83
2021/05/16 11:03:27;;;;;;;2.07;1.00;;;18.20;54.80;;;;;;5084529;28;20905;-84
2021/05/16 11:06:05;;;;;;;3.27;1.07;;;17.40;55.70;;;;;;5084741;28;20455;-83
2021/05/16 11:09:12;;;;;;;4.10;1.23;;;16.90;56.70;;;;;;5093293;28;20496;-86
2021/05/16 11:11:59;;;;;;;4.80;1.07;;;15.50;62.70;;;;;;5096347;28;20475;-83
2021/05/16 11:14:44;;;;;;;4.83;1.77;;;11.30;99.90;;;;;;5077590;28;20567;-84
2021/05/16 11:17:26;;;;;;;3.40;1.70;;;10.30;99.90;;;;;;5094779;28;20471;-82
2021/05/16 11:20:01;;;;;;;4.07;1.33;;;10.60;99.90;;;;;;5099831;28;20445;-83
2021/05/16 11:28:23;;;;;;;3.27;1.13;;;10.80;99.90;;;;;;5100264;28;20464;-81
2021/05/16 11:31:12;;;;;;;2.20;0.97;;;11.40;99.90;;;;;;5101712;28;20484;-82
2021/05/16 11:33:49;;;;;;;1.40;0.80;;;12.00;99.90;;;;;;5092539;28;20453;-83
2021/05/16 11:36:27;;;;;;;2.20;1.00;;;12.00;99.90;;;;;;5101010;28;20494;-84
2021/05/16 11:39:05;;;;;;;3.57;1.17;;;12.50;99.90;;;;;;5098000;28;20477;-83
2021/05/16 11:41:44;;;;;;;2.40;1.20;;;13.20;99.90;;;;;;5095483;28;20455;-80
2021/05/16 11:44:28;;;;;;;2.30;1.00;;;13.60;99.90;;;;;;5089724;28;20459;-86
2021/05/16 11:47:11;;;;;;;2.07;0.63;;;14.10;99.90;;;;;;5096050;28;20439;-84
2021/05/16 11:49:57;;;;;;;2.30;0.60;;;14.20;99.90;;;;;;5106749;28;20482;-87
2021/05/16 11:52:51;;;;;;;1.43;0.70;;;14.40;99.90;;;;;;5108698;28;20498;-85
2021/05/16 11:55:34;;;;;;;1.00;0.60;;;14.10;99.90;;;;;;5110763;28;20521;-86
2021/05/16 11:58:19;;;;;;;2.90;0.90;;;13.70;99.90;;;;;;5104956;28;20433;-86
2021/05/16 12:00:54;;;;;;;1.63;0.83;;;13.10;99.90;;;;;;5108608;28;20444;-84
2021/05/16 12:03:35;;;;;;;2.10;0.70;;;12.80;99.90;;;;;;5101893;28;20530;-85
2021/05/16 12:06:17;;;;;;;2.73;0.63;;;12.70;99.90;;;;;;5107840;28;20930;-85
2021/05/16 12:09:12;;;;;;;2.00;0.83;;;13.10;99.90;;;;;;5093951;28;20466;-83
2021/05/16 12:11:53;;;;;;;1.37;0.70;;;13.50;99.90;;;;;;5077967;28;20485;-81
2021/05/16 12:14:30;;;;;;;2.03;1.00;;;13.40;99.90;;;;;;5088568;28;20449;-83
2021/05/16 12:17:06;;;;;;;1.67;0.90;;;13.40;99.90;;;;;;5091479;28;20447;-80
2021/05/16 12:19:44;;;;;;;1.83;0.67;;;13.50;99.90;;;;;;5093224;28;20458;-79
2021/05/16 12:22:19;;;;;;;2.70;1.10;;;13.50;99.90;;;;;;5089882;28;20462;-79
2021/05/16 12:24:54;;;;;;;2.07;0.87;;;13.60;99.90;;;;;;5068178;28;20508;-82
2021/05/16 12:27:37;;;;;;;2.43;1.10;;;14.30;99.90;;;;;;5071228;28;20968;-82
2021/05/16 12:30:31;;;;;;;0.90;0.57;;;14.80;99.90;;;;;;5090885;28;20467;-80
2021/05/16 12:33:06;;;;;;;2.33;0.87;;;14.60;99.90;;;;;;5090835;28;20470;-81
2021/05/16 12:35:42;;;;;;;0.90;0.80;;;14.40;99.90;;;;;;5095221;28;20448;-81
2021/05/16 12:38:21;;;;;;;0.93;0.67;;;14.60;99.90;;;;;;5088778;28;20441;-79
2021/05/16 12:41:12;;;;;;;1.50;0.70;;;14.80;99.90;;;;;;5091629;28;20463;-79
2021/05/16 12:44:03;;;;;;;5.47;1.20;;;14.70;99.90;;;;;;5091009;28;20448;-78
2021/05/16 12:46:51;;;;;;;7.20;1.23;;;14.40;99.90;;;;;;5094732;28;20483;-80
2021/05/16 12:49:34;;;;;;;8.17;2.03;;;12.30;99.90;;;;;;5068901;28;20464;-79
2021/05/16 12:52:26;;;;;;;5.70;1.43;;;11.50;99.90;;;;;;5087510;28;20452;-78
2021/05/16 12:54:58;;;;;;;3.20;2.10;;;11.80;99.90;;;;;;5086944;28;20456;-78
2021/05/16 12:57:43;;;;;;;5.80;1.60;;;11.90;99.90;;;;;;5088033;28;20460;-77
2021/05/16 13:00:33;;;;;;;2.10;1.17;;;11.90;99.90;;;;;;5084117;28;20529;-78
2021/05/16 13:03:14;;;;;;;3.57;1.20;;;12.00;99.90;;;;;;5094090;28;20466;-77
2021/05/16 13:05:55;;;;;;;2.57;1.20;;;12.40;99.90;;;;;;5085311;28;20458;-81
2021/05/16 13:08:44;;;;;;;1.30;1.17;;;12.40;99.90;;;;;;5094290;28;20470;-78
2021/05/16 13:11:19;;;;;;;3.03;1.90;;;12.00;99.90;;;;;;5102447;28;20586;-78
2021/05/16 13:13:57;;;;;;;1.77;1.20;;;12.30;99.90;;;;;;5100333;28;20447;-78
2021/05/16 13:16:39;;;;;;;1.70;1.07;;;12.50;99.90;;;;;;5107667;28;20555;-79
2021/05/16 13:19:31;;;;;;;4.53;1.27;;;13.10;99.90;;;;;;5097372;28;20444;-83
2021/05/16 13:22:07;;;;;;;2.60;1.20;;;13.30;99.90;;;;;;5096347;28;20543;-79
2021/05/16 13:24:55;;;;;;;2.63;1.13;;;13.00;99.90;;;;;;5110701;28;20479;-79
2021/05/16 13:27:30;;;;;;;1.70;1.00;;;13.60;99.90;;;;;;5106327;28;20474;-78
2021/05/16 13:30:08;;;;;;;1.67;0.90;;;13.70;99.90;;;;;;5089767;28;20546;-77
2021/05/16 13:32:43;;;;;;;3.13;1.10;;;13.60;99.90;;;;;;5096261;28;20450;-78
2021/05/16 13:35:20;;;;;;;1.63;1.10;;;14.20;99.90;;;;;;5099159;28;20978;-76
2021/05/16 13:37:52;;;;;;;1.63;1.00;;;14.50;99.90;;;;;;5090680;28;20501;-81
2021/05/16 13:40:28;;;;;;;2.90;1.70;;;14.50;99.90;;;;;;5099794;28;20458;-79
2021/05/16 13:43:00;;;;;;;2.97;1.30;;;14.50;99.90;;;;;;5091044;28;21126;-76
2021/05/16 13:45:35;;;;;;;6.50;1.53;;;14.80;99.90;;;;;;5095699;28;20442;-76
2021/05/16 13:48:10;;;;;;;3.33;1.63;;;15.00;99.90;;;;;;5088338;28;20855;-79
2021/05/16 13:50:41;;;;;;;3.57;1.50;;;14.80;99.90;;;;;;5094329;28;20465;-75
2021/05/16 13:53:18;;;;;;;2.43;1.20;;;14.10;99.90;;;;;;5092766;28;20455;-78
2021/05/16 13:55:56;;;;;;;3.20;1.10;;;14.50;99.90;;;;;;5091848;28;20891;-76
2021/05/16 13:58:31;;;;;;;1.20;0.70;;;14.80;99.90;;;;;;5091828;28;20537;-75
2021/05/16 14:01:05;;;;;;;2.70;1.20;;;15.40;99.90;;;;;;5092249;28;20440;-80
2021/05/16 14:03:42;;;;;;;2.83;1.10;;;15.70;99.90;;;;;;5091637;28;20523;-79
2021/05/16 14:06:17;;;;;;;1.90;1.10;;;15.60;99.90;;;;;;5102847;28;20468;-81
2021/05/16 14:08:49;;;;;;;1.90;0.80;;;15.70;99.90;;;;;;5098081;28;20456;-79
2021/05/16 14:11:28;;;;;;;2.83;1.10;;;15.70;99.90;;;;;;5095192;28;20612;-76
2021/05/16 14:14:26;;;;;;;2.57;0.97;;;15.50;99.90;;;;;;5091865;28;20831;-85
2021/05/16 14:17:06;;;;;;;3.57;1.10;;;15.40;99.90;;;;;;5109882;28;20501;-84
2021/05/16 14:19:42;;;;;;;3.30;0.80;;;15.70;99.90;;;;;;5103013;28;20457;-84
2021/05/16 14:22:26;;;;;;;3.30;0.80;;;16.60;99.90;;;;;;5095845;28;20464;-84
2021/05/16 14:25:00;;;;;;;2.30;0.67;;;16.80;99.90;;;;;;5087545;28;20452;-85
2021/05/16 14:27:50;;;;;;;1.03;0.70;;;17.10;99.90;;;;;;5099430;28;20533;-85
2021/05/16 14:30:26;;;;;;;2.07;1.00;;;17.20;99.90;;;;;;5097209;28;20492;-84
2021/05/16 14:33:01;;;;;;;1.73;0.97;;;16.90;99.90;;;;;;5098066;28;20487;-84
2021/05/16 14:38:27;;;;;;;2.40;0.90;;;16.40;99.90;;;;;;5101888;28;20453;-86
2021/05/16 14:41:03;;;;;;;2.53;1.17;;;17.30;99.90;;;;;;5096462;28;20509;-87
2021/05/16 14:43:51;;;;;;;2.50;0.90;;;17.80;91.10;;;;;;5108185;28;20448;-86
2021/05/16 14:47:25;;;;;;;2.73;1.40;;;18.60;84.40;;;;;;5104117;28;20479;-85
2021/05/16 14:50:06;;;;;;;3.07;1.20;;;18.80;73.00;;;;;;5090219;28;20451;-88
2021/05/16 14:52:53;;;;;;;2.73;1.07;;;19.20;65.10;;;;;;5098355;28;20466;-88
2021/05/16 14:55:32;;;;;;;2.50;0.70;;;18.00;61.50;;;;;;5096315;28;20461;-87
2021/05/16 14:58:09;;;;;;;1.90;1.00;;;17.40;59.50;;;;;;5099614;28;20453;-86
2021/05/16 15:00:55;;;;;;;1.70;0.90;;;17.90;59.90;;;;;;5094740;28;20440;-86
2021/05/16 15:03:50;;;;;;;2.00;1.00;;;17.70;57.00;;;;;;5098814;28;20788;-86
2021/05/16 15:12:16;;;;;;;2.50;0.90;;;17.50;56.70;;;;;;5093038;28;20461;-88
2021/05/16 15:23:50;;;;;;;1.80;1.17;;;17.80;53.60;;;;;;5076336;28;20492;-89
2021/05/16 15:32:41;;;;;;;2.97;0.80;;;17.20;53.40;;;;;;5103983;28;20925;-87
2021/05/16 15:41:53;;;;;;;1.90;1.10;;;17.30;53.20;;;;;;5095786;28;20435;-88
2021/05/16 15:50:33;;;;;;;2.47;1.03;;;17.00;55.00;;;;;;5095226;28;20947;-87
2021/05/16 15:53:23;;;;;;;1.80;0.97;;;17.50;56.20;;;;;;5092547;28;20456;-88
2021/05/16 15:59:10;;;;;;;2.40;1.03;;;16.40;56.50;;;;;;5088197;28;20454;-88